Queen Of Burnaby — VCVV — position and weather

sailwx.info

Track history (hours):
 
Tides and Currents Weather Stations Pressure Air Temp Water Temp Dewpoint Dewpoint Depression Visibility Wind Speed Wind Dir Waves Ship Positions

Queen Of Burnaby

Last reported at 2015-Jan-27 19:24 UTC. Time now 2015-Jan-27 23:01 UTC.
Position N 49°50' W 124°32'.

Length 130 m; draft 3.8 m.

MMSI: 316001246.

Date/timePositionNaut miles runAvg speedWind from/ knotsBaromVisibWave heightAir tempDewpointWater temp
2015-Jan-27 19:24N 49°50' W 124°32'910.9
2015-Jan-27 18:32N 49°47' W 124°46'7 2.4
2015-Jan-27 15:30N 49°50' W 124°35'1414.6
2015-Jan-27 14:33N 49°45' W 124°55'13 1.2
2015-Jan-27 04:11N 49°49' W 124°37'915.0
2015-Jan-27 03:33N 49°46' W 124°50'13 4.1
2015-Jan-27 00:30N 49°50' W 124°32'1313.5
2015-Jan-26 23:33N 49°46' W 124°51'12 2.6
2015-Jan-26 19:10N 49°50' W 124°34'813.1
2015-Jan-26 18:32N 49°47' W 124°46'2 1.4
2015-Jan-26 17:08N 49°47' W 124°49'1013.0
2015-Jan-26 16:21N 49°50' W 124°34'1 1.3
2015-Jan-26 15:33N 49°50' W 124°35'1413.9
2015-Jan-26 14:33N 49°45' W 124°55'4 0.4
2015-Jan-26 05:31N 49°44' W 124°50'1715.8
2015-Jan-26 04:28N 49°31' W 124°32'1516.4
2015-Jan-26 03:33N 49°23' W 124°13'1514.6
2015-Jan-26 02:33N 49°18' W 123°52'1515.4
2015-Jan-26 01:33N 49°08' W 123°34'1616.0
2015-Jan-26 00:33N 48°55' W 123°19'1312.6
2015-Jan-25 23:33N 48°43' W 123°25'2 2.0
2015-Jan-25 22:34N 48°42' W 123°24'1010.3
2015-Jan-25 21:33N 48°35' W 123°12'1211.6
2015-Jan-25 20:33N 48°23' W 123°15'8 8.3
2015-Jan-25 19:33N 48°26' W 123°26'1 0.2
2015-Jan-25 15:06N 48°26' W 123°25'0 0.0
2015-Jan-25 14:30N 48°26' W 123°25'0 0.0
2015-Jan-25 12:29N 48°26' W 123°25'0 0.0
2015-Jan-25 11:05N 48°26' W 123°25'0 0.0
2015-Jan-25 10:24N 48°26' W 123°25'0 0.0
2015-Jan-25 05:12N 48°26' W 123°25'0 0.0
2015-Jan-25 04:30N 48°26' W 123°25'0 0.0
2015-Jan-25 03:24N 48°26' W 123°25'0 0.0
2015-Jan-25 00:13N 48°26' W 123°25'0 0.0
2015-Jan-24 23:25N 48°26' W 123°25'0 0.0
2015-Jan-24 17:31N 48°26' W 123°25'0 0.0
2015-Jan-24 03:12N 48°26' W 123°25'0 0.0
2015-Jan-24 02:15N 48°26' W 123°25'0 0.0
2015-Jan-24 01:18N 48°26' W 123°25'0 0.0
2015-Jan-23 23:30N 48°26' W 123°25'0 0.0
2015-Jan-23 22:13N 48°26' W 123°25'0 0.0
2015-Jan-23 20:25N 48°26' W 123°25'0 0.0
2015-Jan-23 16:09N 48°26' W 123°25'0 0.0
2015-Jan-22 21:28N 48°26' W 123°25'0 0.0
2015-Jan-22 18:18N 48°26' W 123°25'0 0.0
2015-Jan-22 16:07N 48°26' W 123°25'0 0.0
2015-Jan-22 15:22N 48°26' W 123°25'0 0.0
2015-Jan-22 13:09N 48°26' W 123°25'0 0.0
2015-Jan-21 20:24N 48°26' W 123°25'0 0.0
2015-Jan-21 16:12N 48°26' W 123°25'0 0.0
2015-Jan-21 14:18N 48°26' W 123°25'0 0.0
2015-Jan-21 12:12N 48°26' W 123°25'0 0.0
2015-Jan-21 10:18N 48°26' W 123°25'0 0.0
2015-Jan-21 09:12N 48°26' W 123°25'0 0.0
2015-Jan-21 06:30N 48°26' W 123°25'0 0.0
2015-Jan-21 05:30N 48°26' W 123°25'0 0.0
2015-Jan-21 04:18N 48°26' W 123°25'0 0.0
2015-Jan-21 03:18N 48°26' W 123°25'0 0.0
2015-Jan-21 01:25N 48°26' W 123°25'0 0.0
2015-Jan-20 18:15N 48°26' W 123°25'0 0.2
2015-Jan-20 16:27N 48°26' W 123°26'0 0.0
2015-Jan-20 11:16N 48°26' W 123°26'0 0.0
2015-Jan-20 08:15N 48°26' W 123°26'0 0.0
2015-Jan-20 07:33N 48°26' W 123°26'0 0.0
2015-Jan-20 05:07N 48°26' W 123°26'0 0.0
2015-Jan-20 04:23N 48°26' W 123°26'0 0.0
2015-Jan-20 03:28N 48°26' W 123°26'0 0.0
2015-Jan-20 02:33N 48°26' W 123°26'0 0.0
2015-Jan-19 22:16N 48°26' W 123°26'0 0.0
2015-Jan-19 21:22N 48°26' W 123°26'0 0.0
2015-Jan-19 15:19N 48°26' W 123°26'0 0.4
2015-Jan-19 14:32N 48°26' W 123°26'8 8.0
2015-Jan-19 13:33N 48°24' W 123°15'1111.4
2015-Jan-19 12:33N 48°35' W 123°14'9 9.1
2015-Jan-19 11:33N 48°42' W 123°24'3 2.8
2015-Jan-19 10:33N 48°43' W 123°21'1211.9
2015-Jan-19 09:33N 48°55' W 123°18'1414.3
2015-Jan-19 08:33N 49°06' W 123°31'1414.1
2015-Jan-19 07:33N 49°16' W 123°47'1413.7
2015-Jan-19 06:33N 49°21' W 124°06'1514.8
2015-Jan-19 05:33N 49°28' W 124°27'1414.1
2015-Jan-19 04:33N 49°38' W 124°41'13 3.9
2015-Jan-19 01:19N 49°50' W 124°33'1 0.6
2015-Jan-19 00:20N 49°50' W 124°33'1215.2
2015-Jan-18 23:33N 49°46' W 124°51'3 0.6
2015-Jan-18 18:32N 49°47' W 124°46'9 4.0
2015-Jan-18 16:22N 49°50' W 124°34'3 4.2
2015-Jan-18 15:33N 49°49' W 124°39'4 0.3
2015-Jan-18 04:15N 49°50' W 124°33'811.8
2015-Jan-18 03:32N 49°47' W 124°45'9 1.1
2015-Jan-17 19:29N 49°50' W 124°32'  
Track history (hours):
 
Tides and Currents Weather Stations Pressure Air Temp Water Temp Dewpoint Dewpoint Depression Visibility Wind Speed Wind Dir Waves Ship Positions

Queen Of Burnaby

Last reported at 2015-Jan-27 19:24 UTC. Time now 2015-Jan-27 23:01 UTC.
Position N 49°50' W 124°32'.

Length 130 m; draft 3.8 m.

MMSI: 316001246.

Date/timePositionNaut miles runAvg speedWind from/ knotsBaromVisibWave heightAir tempDewpointWater temp
2015-Jan-27 19:24N 49°50' W 124°32'910.9
2015-Jan-27 18:32N 49°47' W 124°46'7 2.4
2015-Jan-27 15:30N 49°50' W 124°35'1414.6
2015-Jan-27 14:33N 49°45' W 124°55'13 1.2
2015-Jan-27 04:11N 49°49' W 124°37'915.0
2015-Jan-27 03:33N 49°46' W 124°50'13 4.1
2015-Jan-27 00:30N 49°50' W 124°32'1313.5
2015-Jan-26 23:33N 49°46' W 124°51'12 2.6
2015-Jan-26 19:10N 49°50' W 124°34'813.1
2015-Jan-26 18:32N 49°47' W 124°46'2 1.4
2015-Jan-26 17:08N 49°47' W 124°49'1013.0
2015-Jan-26 16:21N 49°50' W 124°34'1 1.3
2015-Jan-26 15:33N 49°50' W 124°35'1413.9
2015-Jan-26 14:33N 49°45' W 124°55'4 0.4
2015-Jan-26 05:31N 49°44' W 124°50'1715.8
2015-Jan-26 04:28N 49°31' W 124°32'1516.4
2015-Jan-26 03:33N 49°23' W 124°13'1514.6
2015-Jan-26 02:33N 49°18' W 123°52'1515.4
2015-Jan-26 01:33N 49°08' W 123°34'1616.0
2015-Jan-26 00:33N 48°55' W 123°19'1312.6
2015-Jan-25 23:33N 48°43' W 123°25'2 2.0
2015-Jan-25 22:34N 48°42' W 123°24'1010.3
2015-Jan-25 21:33N 48°35' W 123°12'1211.6
2015-Jan-25 20:33N 48°23' W 123°15'8 8.3
2015-Jan-25 19:33N 48°26' W 123°26'1 0.2
2015-Jan-25 15:06N 48°26' W 123°25'0 0.0
2015-Jan-25 14:30N 48°26' W 123°25'0 0.0
2015-Jan-25 12:29N 48°26' W 123°25'0 0.0
2015-Jan-25 11:05N 48°26' W 123°25'0 0.0
2015-Jan-25 10:24N 48°26' W 123°25'0 0.0
2015-Jan-25 05:12N 48°26' W 123°25'0 0.0
2015-Jan-25 04:30N 48°26' W 123°25'0 0.0
2015-Jan-25 03:24N 48°26' W 123°25'0 0.0
2015-Jan-25 00:13N 48°26' W 123°25'0 0.0
2015-Jan-24 23:25N 48°26' W 123°25'0 0.0
2015-Jan-24 17:31N 48°26' W 123°25'0 0.0
2015-Jan-24 03:12N 48°26' W 123°25'0 0.0
2015-Jan-24 02:15N 48°26' W 123°25'0 0.0
2015-Jan-24 01:18N 48°26' W 123°25'0 0.0
2015-Jan-23 23:30N 48°26' W 123°25'0 0.0
2015-Jan-23 22:13N 48°26' W 123°25'0 0.0
2015-Jan-23 20:25N 48°26' W 123°25'0 0.0
2015-Jan-23 16:09N 48°26' W 123°25'0 0.0
2015-Jan-22 21:28N 48°26' W 123°25'0 0.0
2015-Jan-22 18:18N 48°26' W 123°25'0 0.0
2015-Jan-22 16:07N 48°26' W 123°25'0 0.0
2015-Jan-22 15:22N 48°26' W 123°25'0 0.0
2015-Jan-22 13:09N 48°26' W 123°25'0 0.0
2015-Jan-21 20:24N 48°26' W 123°25'0 0.0
2015-Jan-21 16:12N 48°26' W 123°25'0 0.0
2015-Jan-21 14:18N 48°26' W 123°25'0 0.0
2015-Jan-21 12:12N 48°26' W 123°25'0 0.0
2015-Jan-21 10:18N 48°26' W 123°25'0 0.0
2015-Jan-21 09:12N 48°26' W 123°25'0 0.0
2015-Jan-21 06:30N 48°26' W 123°25'0 0.0
2015-Jan-21 05:30N 48°26' W 123°25'0 0.0
2015-Jan-21 04:18N 48°26' W 123°25'0 0.0
2015-Jan-21 03:18N 48°26' W 123°25'0 0.0
2015-Jan-21 01:25N 48°26' W 123°25'0 0.0
2015-Jan-20 18:15N 48°26' W 123°25'0 0.2
2015-Jan-20 16:27N 48°26' W 123°26'0 0.0
2015-Jan-20 11:16N 48°26' W 123°26'0 0.0
2015-Jan-20 08:15N 48°26' W 123°26'0 0.0
2015-Jan-20 07:33N 48°26' W 123°26'0 0.0
2015-Jan-20 05:07N 48°26' W 123°26'0 0.0
2015-Jan-20 04:23N 48°26' W 123°26'0 0.0
2015-Jan-20 03:28N 48°26' W 123°26'0 0.0
2015-Jan-20 02:33N 48°26' W 123°26'0 0.0
2015-Jan-19 22:16N 48°26' W 123°26'0 0.0
2015-Jan-19 21:22N 48°26' W 123°26'0 0.0
2015-Jan-19 15:19N 48°26' W 123°26'0 0.4
2015-Jan-19 14:32N 48°26' W 123°26'8 8.0
2015-Jan-19 13:33N 48°24' W 123°15'1111.4
2015-Jan-19 12:33N 48°35' W 123°14'9 9.1
2015-Jan-19 11:33N 48°42' W 123°24'3 2.8
2015-Jan-19 10:33N 48°43' W 123°21'1211.9
2015-Jan-19 09:33N 48°55' W 123°18'1414.3
2015-Jan-19 08:33N 49°06' W 123°31'1414.1
2015-Jan-19 07:33N 49°16' W 123°47'1413.7
2015-Jan-19 06:33N 49°21' W 124°06'1514.8
2015-Jan-19 05:33N 49°28' W 124°27'1414.1
2015-Jan-19 04:33N 49°38' W 124°41'13 3.9
2015-Jan-19 01:19N 49°50' W 124°33'1 0.6
2015-Jan-19 00:20N 49°50' W 124°33'1215.2
2015-Jan-18 23:33N 49°46' W 124°51'3 0.6
2015-Jan-18 18:32N 49°47' W 124°46'9 4.0
2015-Jan-18 16:22N 49°50' W 124°34'3 4.2
2015-Jan-18 15:33N 49°49' W 124°39'4 0.3
2015-Jan-18 04:15N 49°50' W 124°33'811.8
2015-Jan-18 03:32N 49°47' W 124°45'9 1.1
2015-Jan-17 19:29N 49°50' W 124°32'  

Dump ship's entire track history